Sargents School, Colorado
Current Conditions -  °F | °C
As of 2:30 AM on Friday 19 Dec 2014 (Local Time) from KRCV Reporting Station
Clear Clear  
Wind Chill:   Ceiling: Unl
Heat Index: 16°   Visibility: 10mi
Dew Point: 10°   Wind: 13mph
Humidity: 76%   Direction: 260°W
Pressure: 30.13"   Gusts: NA
Location:  37.5196°N, 106.176°W
Report Text: KRCV 190930Z AUTO 26011KT 10SM CLR M09/M12 A3013 RMK AO2 T10901125
Loading
Personal Weather Stations






























Interactive Weather Map New forecast layout! Learn more

10-Day Weather Forecast

Advertisements
Track Severe Weather on mobile